Hatley, Wisconsin
Current Conditions -  °F | °C
As of 2:54 PM on Thursday 23 Oct 2014 (Local Time) from KAUW Reporting Station
Haze Haze  
Wind Chill: 42°   Ceiling: 600
Heat Index: 46°   Visibility: 5mi
Dew Point: 44°   Wind: 7mph
Humidity: 93%   Direction: 190°S
Pressure: 30.01"   Gusts: NA
Location:  44.89°N, 89.34°W
Report Text: KAUW 231954Z AUTO 19006KT 5SM BR OVC006 08/07 A3001 RMK AO2 RAE23 SLP176 P0001 T00780067
Loading
Personal Weather Stations






























Interactive Weather Map
Tropical Storm Tracking
New forecast layout! Learn more

10-Day Weather Forecast

Advertisements
Track Severe Weather on mobile